Overview Statistics Trail Chart Weather Telemetry Raw packets
 

This is the latest recevied weather packets stored in our database for station/object KC0RPY. If no packets are shown the sender has not sent any weather packets the latest 10 day(s).

<< 1 2 3 4 5 6 7 >>
Time Temp. Humidity Pressure Rain* Wind** Luminosity Snow
1788636881 37.22° C 42% 1014.5 hPa 0 mm - 772 W/m² -
1788636576 38.33° C 40% 1014.5 hPa 0 mm - 371 W/m² -
1788636271 37.78° C 41% 1015 hPa 0 mm - 711 W/m² -
1788635966 37.22° C 41% 1015 hPa 0 mm - 736 W/m² -
1788635665 36.67° C 43% 1015 hPa 0 mm - 736 W/m² -
1788635360 37.22° C 43% 1015 hPa 0 mm - 730 W/m² -
1788635058 37.22° C 42% 1015 hPa 0 mm - 731 W/m² -
1788634757 36.67° C 43% 1015 hPa 0 mm - 742 W/m² -
1788634452 37.22° C 43% 1015 hPa 0 mm - 775 W/m² -
1788634151 37.78° C 43% 1015 hPa 0 mm - 756 W/m² -
1788633845 36.67° C 42% 1015.3 hPa 0 mm - 758 W/m² -
1788633543 36.67° C 44% 1015.3 hPa 0 mm - 762 W/m² -
1788633250 36.11° C 45% 1015.7 hPa 0 mm - 746 W/m² -
1788632933 36.67° C 43% 1015.7 hPa 0 mm - 741 W/m² -
1788632628 36.67° C 42% 1015.7 hPa 0 mm - 734 W/m² -
1788632323 36.67° C 43% 1015.7 hPa 0 mm - 735 W/m² -
1788632023 37.22° C 43% 1015.7 hPa 0 mm - 444 W/m² -
1788631722 36.11° C 45% 1015.7 hPa 0 mm - 760 W/m² -
1788631448 36.67° C 43% 1015.7 hPa 0 mm - 769 W/m² -
1788631112 36.11° C 43% 1016 hPa 0 mm - 783 W/m² -
1788630806 35.56° C 46% 1016 hPa 0 mm - 769 W/m² -
1788630502 36.11° C 44% 1016 hPa 0 mm - 783 W/m² -
1788630197 36.11° C 45% 1016.3 hPa 0 mm - 789 W/m² -
1788629893 36.11° C 45% 1016.3 hPa 0 mm - 792 W/m² -
1788629589 35.56° C 46% 1016.3 hPa 0 mm - 784 W/m² -

* Rain latest hour (hover to see other rain measurements)
** Current wind speed in m/s (hover to see current wind gust speed)